createdAt,value
2023-04-08T00:00:04.045Z,16.50
2023-04-08T00:02:37.000Z,17.02
2023-04-08T00:05:04.147Z,15.05
2023-04-08T00:07:30.818Z,16.63
2023-04-08T00:09:57.456Z,18.02
2023-04-08T00:12:24.001Z,20.92
2023-04-08T00:14:50.556Z,16.77
2023-04-08T00:17:17.942Z,18.20
2023-04-08T00:19:44.970Z,17.33
2023-04-08T00:22:11.655Z,16.70
2023-04-08T00:24:38.221Z,18.58
2023-04-08T00:27:04.804Z,20.02
2023-04-08T00:29:31.385Z,20.15
2023-04-08T00:31:58.112Z,18.17
2023-04-08T00:34:24.762Z,19.15
2023-04-08T00:36:51.873Z,17.67
2023-04-08T00:39:18.428Z,15.40
2023-04-08T00:41:45.204Z,19.17
2023-04-08T00:44:11.761Z,16.55
2023-04-08T00:46:40.554Z,18.58
2023-04-08T00:49:07.518Z,21.48
2023-04-08T00:51:36.474Z,17.20
2023-04-08T00:54:05.607Z,19.60
2023-04-08T00:56:34.165Z,15.68
2023-04-08T00:59:01.394Z,16.80
2023-04-08T01:01:30.964Z,13.75
2023-04-08T01:04:07.545Z,16.45
2023-04-08T01:06:51.580Z,16.92
2023-04-08T01:09:21.411Z,13.73
2023-04-08T01:11:51.055Z,14.00
2023-04-08T01:14:21.690Z,14.10
2023-04-08T01:16:48.502Z,19.88
2023-04-08T01:19:27.148Z,13.27
2023-04-08T01:22:01.754Z,12.60
2023-04-08T01:24:31.078Z,12.95
2023-04-08T01:26:59.180Z,11.73
2023-04-08T01:29:26.448Z,11.60
2023-04-08T01:31:55.485Z,14.65
2023-04-08T01:34:23.568Z,11.93
2023-04-08T01:36:51.323Z,12.68
2023-04-08T01:39:19.676Z,13.32
2023-04-08T01:41:46.969Z,9.80
2023-04-08T01:44:15.591Z,9.65
2023-04-08T01:46:43.269Z,8.97
2023-04-08T01:49:10.839Z,12.60
2023-04-08T01:51:38.969Z,10.60
2023-04-08T01:54:05.798Z,11.32
2023-04-08T01:56:38.002Z,15.68
2023-04-08T01:59:10.765Z,9.65
2023-04-08T02:01:38.722Z,12.40
2023-04-08T02:04:05.550Z,9.65
2023-04-08T02:06:32.713Z,11.00
2023-04-08T02:08:59.981Z,8.50
2023-04-08T02:11:27.014Z,7.93
2023-04-08T02:13:54.208Z,8.55
2023-04-08T02:16:35.118Z,9.00
2023-04-08T02:19:57.575Z,8.93
2023-04-08T02:22:40.089Z,9.32
2023-04-08T02:25:11.355Z,9.80
2023-04-08T02:27:40.834Z,11.13
2023-04-08T02:30:08.793Z,8.32
2023-04-08T02:32:36.711Z,8.23
2023-04-08T02:35:04.733Z,7.90
2023-04-08T02:37:32.663Z,11.55
2023-04-08T02:40:00.518Z,9.95
2023-04-08T02:42:27.117Z,8.30
2023-04-08T02:44:53.729Z,8.35
2023-04-08T02:47:20.397Z,9.68
2023-04-08T02:49:46.959Z,9.02
2023-04-08T02:52:13.520Z,9.52
2023-04-08T02:54:40.155Z,11.07
2023-04-08T02:57:06.704Z,9.55
2023-04-08T02:59:33.334Z,16.17
2023-04-08T03:01:59.921Z,9.75
2023-04-08T03:04:27.112Z,7.88
2023-04-08T03:06:53.607Z,9.70
2023-04-08T03:09:20.207Z,8.38
2023-04-08T03:11:52.518Z,10.95
2023-04-08T03:14:19.093Z,7.95
2023-04-08T03:16:45.691Z,9.98
2023-04-08T03:19:12.304Z,8.85
2023-04-08T03:21:38.823Z,9.60
2023-04-08T03:24:05.582Z,7.40
2023-04-08T03:26:32.149Z,9.73
2023-04-08T03:28:58.667Z,12.45
2023-04-08T03:31:25.983Z,10.25
2023-04-08T03:33:52.557Z,9.40
2023-04-08T03:36:19.107Z,8.75
2023-04-08T03:38:45.826Z,8.20
2023-04-08T03:41:12.395Z,10.43
2023-04-08T03:43:38.992Z,10.05
2023-04-08T03:46:05.857Z,8.18
2023-04-08T03:48:32.519Z,10.63
2023-04-08T03:50:59.093Z,9.20
2023-04-08T03:53:27.978Z,9.63
2023-04-08T03:55:55.689Z,9.85
2023-04-08T03:58:22.239Z,8.90
2023-04-08T04:00:48.858Z,9.68
2023-04-08T04:03:15.669Z,10.07
2023-04-08T04:05:42.373Z,10.63
2023-04-08T04:08:09.491Z,11.93
2023-04-08T04:10:36.091Z,13.77
2023-04-08T04:13:02.678Z,10.55
2023-04-08T04:15:29.264Z,10.27
2023-04-08T04:17:55.825Z,11.80
2023-04-08T04:20:22.423Z,12.18
2023-04-08T04:22:48.939Z,13.20
2023-04-08T04:25:15.587Z,13.02
2023-04-08T04:27:42.115Z,14.60
2023-04-08T04:30:09.600Z,15.73
2023-04-08T04:32:36.327Z,12.10
2023-04-08T04:35:03.112Z,13.20
2023-04-08T04:37:29.724Z,12.07
2023-04-08T04:39:56.283Z,12.35
2023-04-08T04:42:22.819Z,12.90
2023-04-08T04:44:49.382Z,14.27
2023-04-08T04:47:16.382Z,15.18
2023-04-08T04:49:42.950Z,12.07
2023-04-08T04:52:09.498Z,12.32
2023-04-08T04:54:36.302Z,13.00
2023-04-08T04:57:03.121Z,12.30
2023-04-08T04:59:29.964Z,14.07
2023-04-08T05:01:59.474Z,13.88
2023-04-08T05:06:52.812Z,13.35
2023-04-08T05:09:19.407Z,15.98
2023-04-08T05:11:46.023Z,14.52
2023-04-08T05:14:12.623Z,13.70
2023-04-08T05:16:39.313Z,12.82
2023-04-08T05:19:06.103Z,13.02
2023-04-08T05:21:33.128Z,12.38
2023-04-08T05:23:59.738Z,13.15
2023-04-08T05:26:26.411Z,14.15
2023-04-08T05:28:53.048Z,12.98
2023-04-08T05:31:20.639Z,13.25
2023-04-08T05:33:47.492Z,14.48
2023-04-08T05:36:14.795Z,12.85
2023-04-08T05:38:43.222Z,12.20
2023-04-08T05:41:10.155Z,12.85
2023-04-08T05:43:37.008Z,10.07
2023-04-08T05:46:08.059Z,12.88
2023-04-08T05:48:34.904Z,13.50
2023-04-08T05:51:01.929Z,12.55
2023-04-08T05:53:28.522Z,12.95
2023-04-08T05:55:55.153Z,13.10
2023-04-08T05:58:21.728Z,11.98
2023-04-08T06:00:48.299Z,12.13
2023-04-08T06:03:15.533Z,11.52
2023-04-08T06:05:43.544Z,16.90
2023-04-08T06:08:10.114Z,14.35
2023-04-08T06:10:36.646Z,12.55
2023-04-08T06:13:03.380Z,12.23
2023-04-08T06:15:30.015Z,11.93
2023-04-08T06:17:56.779Z,11.82
2023-04-08T06:20:23.339Z,13.68
2023-04-08T06:22:49.903Z,13.57
2023-04-08T06:25:16.924Z,15.48
2023-04-08T06:27:43.695Z,15.95
2023-04-08T06:30:10.924Z,15.82
2023-04-08T06:32:37.945Z,14.82
2023-04-08T06:35:04.941Z,12.98
2023-04-08T06:37:31.607Z,15.88
2023-04-08T06:39:58.285Z,13.13
2023-04-08T06:42:24.918Z,17.13
2023-04-08T06:45:07.752Z,12.73
2023-04-08T06:47:34.399Z,15.23
2023-04-08T06:50:01.126Z,15.52
2023-04-08T06:52:27.979Z,11.43
2023-04-08T06:54:54.540Z,13.65
2023-04-08T06:57:21.028Z,14.25
2023-04-08T06:59:47.593Z,16.15
2023-04-08T07:02:14.164Z,15.52
2023-04-08T07:04:40.857Z,12.85
2023-04-08T07:07:07.438Z,19.15
2023-04-08T07:09:34.016Z,14.38
2023-04-08T07:12:00.530Z,16.23
2023-04-08T07:14:27.135Z,14.02
2023-04-08T07:16:53.751Z,16.50
2023-04-08T07:19:21.000Z,16.80
2023-04-08T07:21:47.907Z,15.40
2023-04-08T07:24:14.466Z,19.13
2023-04-08T07:26:41.211Z,17.65
2023-04-08T07:29:07.836Z,20.13
2023-04-08T07:31:34.961Z,16.50
2023-04-08T07:34:01.763Z,15.27
2023-04-08T07:36:28.371Z,18.50
2023-04-08T07:38:55.005Z,16.58
2023-04-08T07:41:21.676Z,17.17
2023-04-08T07:43:48.218Z,16.60
2023-04-08T07:46:14.852Z,19.77
2023-04-08T07:48:41.413Z,20.55
2023-04-08T07:51:11.350Z,20.70
2023-04-08T07:53:39.301Z,17.83
2023-04-08T07:56:16.246Z,23.52
2023-04-08T07:58:43.320Z,16.70
2023-04-08T08:01:22.268Z,16.55
2023-04-08T08:03:50.934Z,18.23
2023-04-08T08:06:18.016Z,16.73
2023-04-08T08:08:44.598Z,14.80
2023-04-08T08:11:11.178Z,16.10
2023-04-08T08:13:37.740Z,16.08
2023-04-08T08:16:08.650Z,16.95
2023-04-08T08:18:35.742Z,14.98
2023-04-08T08:21:02.989Z,15.02
2023-04-08T08:23:29.588Z,15.85
2023-04-08T08:26:06.939Z,14.73
2023-04-08T08:28:33.891Z,16.88
2023-04-08T08:31:00.719Z,15.70
2023-04-08T08:33:27.354Z,17.25
2023-04-08T08:35:54.018Z,14.57
2023-04-08T08:38:20.842Z,15.75
2023-04-08T08:40:47.421Z,18.40
2023-04-08T08:43:14.306Z,17.90
2023-04-08T08:45:42.063Z,18.15
2023-04-08T08:48:09.157Z,21.65
2023-04-08T08:50:36.135Z,21.85
2023-04-08T08:53:03.515Z,16.08
2023-04-08T08:56:02.185Z,20.60
2023-04-08T08:58:21.476Z,15.85
2023-04-08T09:00:48.069Z,17.02
2023-04-08T09:03:22.864Z,17.00
2023-04-08T09:06:02.001Z,17.65
2023-04-08T09:08:35.551Z,20.33
2023-04-08T09:11:14.402Z,21.23
2023-04-08T09:13:41.344Z,19.83
2023-04-08T09:16:10.106Z,19.33
2023-04-08T09:18:41.193Z,21.38
2023-04-08T09:21:07.724Z,19.42
2023-04-08T09:23:44.391Z,22.27
2023-04-08T09:26:16.221Z,19.55
2023-04-08T09:28:44.594Z,19.77
2023-04-08T09:31:22.813Z,22.13
2023-04-08T09:33:51.313Z,20.15
2023-04-08T09:36:18.179Z,23.50
2023-04-08T09:38:45.607Z,25.58
2023-04-08T09:41:17.539Z,21.70
2023-04-08T09:43:52.374Z,21.45
2023-04-08T09:46:45.489Z,21.63
2023-04-08T09:49:29.183Z,21.38
2023-04-08T09:52:28.187Z,21.63
2023-04-08T09:55:05.859Z,18.90
2023-04-08T09:57:36.009Z,19.77
2023-04-08T10:00:14.550Z,22.42
2023-04-08T10:03:04.890Z,19.92
2023-04-08T10:05:32.129Z,18.08
2023-04-08T10:07:58.934Z,21.20
2023-04-08T10:10:27.211Z,19.45
2023-04-08T10:12:54.156Z,19.55
2023-04-08T10:15:31.887Z,18.88
2023-04-08T10:18:04.684Z,20.55
2023-04-08T10:20:34.651Z,18.02
2023-04-08T10:23:07.374Z,23.15
2023-04-08T10:25:38.574Z,20.23
2023-04-08T10:28:11.284Z,20.65
2023-04-08T10:30:45.767Z,18.75
2023-04-08T10:33:18.035Z,20.25
2023-04-08T10:35:48.646Z,20.25
2023-04-08T10:38:16.828Z,19.38
2023-04-08T10:40:44.533Z,19.70
2023-04-08T10:43:12.724Z,21.40
2023-04-08T10:45:40.641Z,23.45
2023-04-08T10:48:14.206Z,19.70
2023-04-08T10:50:41.842Z,19.23
2023-04-08T10:53:08.610Z,22.80
2023-04-08T10:55:35.400Z,21.63
2023-04-08T10:58:06.870Z,19.25
2023-04-08T11:00:38.409Z,22.85
2023-04-08T11:03:07.897Z,21.98
2023-04-08T11:05:36.740Z,23.30
2023-04-08T11:08:04.618Z,21.40
2023-04-08T11:10:37.127Z,23.52
2023-04-08T11:13:06.517Z,25.48
2023-04-08T11:15:33.540Z,19.27
2023-04-08T11:18:03.760Z,23.05
2023-04-08T11:20:30.381Z,23.50
2023-04-08T11:22:57.702Z,27.42
2023-04-08T11:25:24.656Z,26.38
2023-04-08T11:27:51.864Z,24.65
2023-04-08T11:30:18.865Z,21.60
2023-04-08T11:32:45.671Z,23.55
2023-04-08T11:35:12.290Z,24.77
2023-04-08T11:37:40.996Z,24.05
2023-04-08T11:40:12.041Z,23.83
2023-04-08T11:42:39.751Z,21.40
2023-04-08T11:45:14.570Z,25.52
2023-04-08T11:47:41.751Z,24.58
2023-04-08T11:50:09.790Z,24.30
2023-04-08T11:52:49.305Z,20.13
2023-04-08T11:57:51.934Z,24.70
2023-04-08T12:00:19.521Z,25.70
2023-04-08T12:02:49.959Z,26.38
2023-04-08T12:05:17.472Z,24.25
2023-04-08T12:07:44.456Z,24.13
2023-04-08T12:10:11.769Z,25.20
2023-04-08T12:12:39.067Z,25.95
2023-04-08T12:15:08.197Z,30.27
2023-04-08T12:17:36.027Z,28.13
2023-04-08T12:20:04.343Z,31.33
2023-04-08T12:22:31.279Z,31.08
2023-04-08T12:24:59.286Z,28.15
2023-04-08T12:27:26.323Z,31.80
2023-04-08T12:29:53.411Z,31.02
2023-04-08T12:32:20.442Z,31.30
2023-04-08T12:34:47.277Z,26.33
2023-04-08T12:37:13.801Z,28.40
2023-04-08T12:39:40.370Z,27.10
2023-04-08T12:42:07.052Z,26.35
2023-04-08T12:44:33.739Z,25.88
2023-04-08T12:47:00.301Z,25.13
2023-04-08T12:49:28.027Z,26.17
2023-04-08T12:51:55.013Z,28.35
2023-04-08T12:54:21.768Z,29.70
2023-04-08T12:56:48.839Z,26.15
2023-04-08T12:59:15.993Z,25.27
2023-04-08T13:01:43.209Z,28.83
2023-04-08T13:04:09.871Z,28.60
2023-04-08T13:06:36.499Z,28.67
2023-04-08T13:09:03.163Z,26.27
2023-04-08T13:11:30.159Z,28.33
2023-04-08T13:13:57.209Z,27.23
2023-04-08T13:16:23.854Z,28.85
2023-04-08T13:18:50.764Z,25.90
2023-04-08T13:21:17.623Z,27.63
2023-04-08T13:23:44.259Z,26.15
2023-04-08T13:26:11.402Z,26.35
2023-04-08T13:28:53.885Z,25.48
2023-04-08T13:31:24.134Z,28.17
2023-04-08T13:33:51.242Z,28.25
2023-04-08T13:36:18.051Z,29.75
2023-04-08T13:38:45.793Z,26.38
2023-04-08T13:41:12.368Z,26.30
2023-04-08T13:43:38.951Z,25.15
2023-04-08T13:46:05.756Z,26.27
2023-04-08T13:48:32.380Z,25.25
2023-04-08T13:50:58.901Z,26.38
2023-04-08T13:53:25.591Z,24.05
2023-04-08T13:55:55.148Z,25.58
2023-04-08T14:00:51.929Z,24.55
2023-04-08T14:03:19.154Z,24.63
2023-04-08T14:05:46.039Z,28.35
2023-04-08T14:08:13.624Z,25.55
2023-04-08T14:10:41.922Z,26.88
2023-04-08T14:13:09.101Z,29.23
2023-04-08T14:15:36.234Z,22.67
2023-04-08T14:18:03.105Z,27.95
2023-04-08T14:20:29.963Z,26.90
2023-04-08T14:22:56.678Z,28.98
2023-04-08T14:25:24.001Z,24.65
2023-04-08T14:27:57.978Z,25.10
2023-04-08T14:30:26.927Z,26.40
2023-04-08T14:32:54.020Z,22.35
2023-04-08T14:35:20.793Z,25.75
2023-04-08T14:37:47.429Z,24.10
2023-04-08T14:40:14.008Z,26.50
2023-04-08T14:42:40.646Z,26.35
2023-04-08T14:45:07.785Z,26.17
2023-04-08T14:47:34.336Z,26.30
2023-04-08T14:50:00.880Z,30.70
2023-04-08T14:52:27.689Z,26.60
2023-04-08T14:54:54.234Z,26.48
2023-04-08T14:57:20.916Z,26.73
2023-04-08T14:59:47.566Z,29.00
2023-04-08T15:02:14.237Z,27.45
2023-04-08T15:04:41.225Z,26.92
2023-04-08T15:07:07.780Z,27.60
2023-04-08T15:09:34.365Z,26.95
2023-04-08T15:12:01.430Z,27.15
2023-04-08T15:14:28.201Z,25.88
2023-04-08T15:16:54.793Z,27.05
2023-04-08T15:19:21.487Z,25.27
2023-04-08T15:21:48.003Z,25.00
2023-04-08T15:24:14.828Z,23.85
2023-04-08T15:26:41.692Z,29.80
2023-04-08T15:29:08.258Z,26.95
2023-04-08T15:31:35.348Z,25.80
2023-04-08T15:34:05.313Z,24.80
2023-04-08T15:36:32.125Z,24.88
2023-04-08T15:38:58.720Z,26.50
2023-04-08T15:41:26.189Z,23.17
2023-04-08T15:43:53.246Z,29.27
2023-04-08T15:46:21.304Z,26.98
2023-04-08T15:48:48.597Z,27.33
2023-04-08T15:51:15.410Z,24.90
2023-04-08T15:53:42.955Z,29.92
2023-04-08T15:56:16.581Z,29.95
2023-04-08T15:58:44.084Z,27.27
2023-04-08T16:01:10.749Z,28.55
2023-04-08T16:03:37.427Z,25.40
2023-04-08T16:06:05.957Z,25.23
2023-04-08T16:08:33.931Z,24.70
2023-04-08T16:11:04.639Z,26.08
2023-04-08T16:13:31.473Z,23.70
2023-04-08T16:16:00.889Z,24.38
2023-04-08T16:18:28.227Z,24.92
2023-04-08T16:20:55.606Z,27.52
2023-04-08T16:23:23.101Z,28.45
2023-04-08T16:25:49.906Z,25.58
2023-04-08T16:28:16.498Z,23.65
2023-04-08T16:30:44.005Z,24.67
2023-04-08T16:33:13.879Z,23.70
2023-04-08T16:35:40.590Z,27.15
2023-04-08T16:38:07.388Z,26.00
2023-04-08T16:40:34.945Z,24.13
2023-04-08T16:43:02.192Z,23.73
2023-04-08T16:45:29.831Z,24.20
2023-04-08T16:47:57.018Z,24.55
2023-04-08T16:50:24.233Z,28.90
2023-04-08T16:52:50.907Z,27.13
2023-04-08T16:55:18.744Z,26.80
2023-04-08T16:57:45.372Z,26.15
2023-04-08T17:00:13.066Z,24.67
2023-04-08T17:02:39.899Z,25.10
2023-04-08T17:05:07.761Z,26.17
2023-04-08T17:07:34.531Z,26.92
2023-04-08T17:10:01.095Z,25.15
2023-04-08T17:12:48.207Z,28.05
2023-04-08T17:15:14.915Z,33.22
2023-04-08T17:17:41.569Z,32.10
2023-04-08T17:20:08.977Z,31.95
2023-04-08T17:22:35.857Z,32.05
2023-04-08T17:25:02.470Z,29.58
2023-04-08T17:27:29.116Z,30.08
2023-04-08T17:29:57.734Z,30.10
2023-04-08T17:32:24.913Z,32.23
2023-04-08T17:34:52.332Z,29.38
2023-04-08T17:37:19.824Z,29.90
2023-04-08T17:39:47.392Z,29.95
2023-04-08T17:42:14.188Z,28.35
2023-04-08T17:44:42.246Z,30.33
2023-04-08T17:47:08.893Z,28.00
2023-04-08T17:49:35.499Z,32.13
2023-04-08T17:52:02.262Z,32.58
2023-04-08T17:54:28.879Z,31.23
2023-04-08T17:56:56.086Z,29.58
2023-04-08T17:59:22.673Z,35.88
2023-04-08T18:01:49.308Z,32.53
2023-04-08T18:04:16.124Z,29.65
2023-04-08T18:06:42.751Z,29.83
2023-04-08T18:09:09.320Z,32.10
2023-04-08T18:11:35.902Z,32.40
2023-04-08T18:14:02.408Z,32.72
2023-04-08T18:16:29.020Z,33.00
2023-04-08T18:18:55.578Z,33.60
2023-04-08T18:21:22.376Z,35.83
2023-04-08T18:23:49.636Z,33.33
2023-04-08T18:26:16.631Z,33.50
2023-04-08T18:28:43.293Z,32.15
2023-04-08T18:31:09.944Z,35.03
2023-04-08T18:36:12.335Z,32.55
2023-04-08T18:38:40.832Z,34.40
2023-04-08T18:41:08.342Z,32.88
2023-04-08T18:43:34.972Z,38.15
2023-04-08T18:46:01.897Z,34.90
2023-04-08T18:48:28.578Z,33.83
2023-04-08T18:50:57.561Z,32.63
2023-04-08T18:53:24.159Z,33.47
2023-04-08T18:55:51.643Z,35.00
2023-04-08T18:58:18.280Z,34.70
2023-04-08T19:00:45.093Z,35.25
2023-04-08T19:03:11.909Z,37.38
2023-04-08T19:05:38.577Z,38.72
2023-04-08T19:08:05.647Z,39.50
2023-04-08T19:10:33.557Z,41.70
2023-04-08T19:13:01.341Z,40.72
2023-04-08T19:15:28.853Z,41.75
2023-04-08T19:17:56.704Z,41.00
2023-04-08T19:20:23.823Z,41.17
2023-04-08T19:22:51.066Z,39.28
2023-04-08T19:25:17.701Z,40.95
2023-04-08T19:27:45.819Z,38.63
2023-04-08T19:30:15.412Z,40.25
2023-04-08T19:32:43.069Z,40.63
2023-04-08T19:35:13.103Z,40.58
2023-04-08T19:37:40.346Z,41.42
2023-04-08T19:40:11.295Z,40.75
2023-04-08T19:42:37.859Z,43.20
2023-04-08T19:45:05.279Z,43.08
2023-04-08T19:47:31.853Z,42.03
2023-04-08T19:49:59.233Z,42.97
2023-04-08T19:52:25.760Z,58.67
2023-04-08T19:54:53.110Z,43.28
2023-04-08T19:57:20.579Z,41.25
2023-04-08T19:59:48.605Z,39.50
2023-04-08T20:02:15.451Z,38.22
2023-04-08T20:04:42.178Z,35.47
2023-04-08T20:07:08.747Z,44.42
2023-04-08T20:09:35.701Z,39.78
2023-04-08T20:12:05.841Z,40.05
2023-04-08T20:14:33.851Z,40.00
2023-04-08T20:17:00.406Z,41.35
2023-04-08T20:19:27.074Z,41.58
2023-04-08T20:21:54.071Z,42.45
2023-04-08T20:24:21.587Z,41.30
2023-04-08T20:26:48.437Z,42.08
2023-04-08T20:29:15.033Z,46.55
2023-04-08T20:31:41.580Z,44.03
2023-04-08T20:34:08.474Z,41.78
2023-04-08T20:36:35.132Z,48.38
2023-04-08T20:39:04.379Z,45.25
2023-04-08T20:41:30.946Z,49.03
2023-04-08T20:43:57.469Z,46.50
2023-04-08T20:46:24.482Z,46.13
2023-04-08T20:48:51.520Z,48.17
2023-04-08T20:51:18.267Z,50.60
2023-04-08T20:53:44.918Z,49.17
2023-04-08T20:56:11.443Z,49.65
2023-04-08T20:58:37.983Z,56.30
2023-04-08T21:01:06.601Z,52.78
2023-04-08T21:03:33.439Z,48.33
2023-04-08T21:06:00.587Z,48.85
2023-04-08T21:08:27.148Z,52.70
2023-04-08T21:10:54.312Z,53.55
2023-04-08T21:13:21.084Z,50.55
2023-04-08T21:15:47.659Z,49.55
2023-04-08T21:18:14.192Z,48.90
2023-04-08T21:20:41.063Z,54.72
2023-04-08T21:23:08.095Z,48.38
2023-04-08T21:25:34.639Z,48.22
2023-04-08T21:28:01.188Z,48.25
2023-04-08T21:30:27.706Z,49.53
2023-04-08T21:32:54.805Z,54.58
2023-04-08T21:35:21.526Z,46.55
2023-04-08T21:37:48.063Z,49.78
2023-04-08T21:40:14.611Z,46.70
2023-04-08T21:42:41.216Z,48.75
2023-04-08T21:45:08.329Z,45.90
2023-04-08T21:47:34.899Z,48.92
2023-04-08T21:50:01.636Z,49.15
2023-04-08T21:52:29.331Z,50.15
2023-04-08T21:54:56.079Z,54.00
2023-04-08T21:57:22.697Z,55.40
2023-04-08T21:59:49.283Z,51.75
2023-04-08T22:02:16.343Z,54.75
2023-04-08T22:04:43.108Z,48.53
2023-04-08T22:07:09.667Z,55.58
2023-04-08T22:09:36.360Z,54.50
2023-04-08T22:12:03.114Z,72.45
2023-04-08T22:14:29.755Z,60.30
2023-04-08T22:16:56.378Z,57.42
2023-04-08T22:19:23.679Z,60.38
2023-04-08T22:21:51.185Z,51.17
2023-04-08T22:24:18.707Z,57.13
2023-04-08T22:26:45.264Z,48.35
2023-04-08T22:29:11.808Z,54.30
2023-04-08T22:31:38.367Z,51.38
2023-04-08T22:34:05.038Z,54.85
2023-04-08T22:36:31.615Z,53.95
2023-04-08T22:38:58.171Z,54.33
2023-04-08T22:41:24.691Z,54.17
2023-04-08T22:43:51.435Z,58.88
2023-04-08T22:46:18.512Z,55.50
2023-04-08T22:48:51.384Z,59.17
2023-04-08T22:51:18.240Z,61.28
2023-04-08T22:53:44.841Z,59.60
2023-04-08T22:56:11.424Z,53.55
2023-04-08T22:58:38.019Z,54.05
2023-04-08T23:01:21.137Z,55.17
2023-04-08T23:03:47.877Z,56.53
2023-04-08T23:06:14.466Z,54.50
2023-04-08T23:08:41.361Z,59.70
2023-04-08T23:11:07.965Z,58.88
2023-04-08T23:13:34.953Z,64.45
2023-04-08T23:16:01.529Z,65.80
2023-04-08T23:18:28.292Z,65.45
2023-04-08T23:20:56.986Z,68.78
2023-04-08T23:23:24.535Z,63.97
2023-04-08T23:25:52.570Z,62.05
2023-04-08T23:28:20.597Z,64.72
2023-04-08T23:30:47.395Z,63.38
2023-04-08T23:33:14.002Z,62.83
2023-04-08T23:35:40.747Z,60.45
2023-04-08T23:38:07.421Z,54.88
2023-04-08T23:40:34.000Z,67.75
2023-04-08T23:43:00.900Z,57.13
2023-04-08T23:45:27.454Z,62.45
2023-04-08T23:47:53.978Z,57.58
2023-04-08T23:50:22.462Z,63.00
2023-04-08T23:52:50.151Z,58.42
2023-04-08T23:55:16.890Z,59.40
2023-04-08T23:57:43.784Z,55.95
